createdAt,value
2022-12-15T00:02:35.896Z,80.41
2022-12-15T00:05:50.009Z,80.55
2022-12-15T00:09:03.737Z,80.61
2022-12-15T00:12:16.703Z,80.97
2022-12-15T00:15:29.729Z,81.73
2022-12-15T00:18:42.729Z,82.12
2022-12-15T00:21:49.716Z,82.65
2022-12-15T00:24:43.282Z,82.70
2022-12-15T00:27:49.928Z,83.15
2022-12-15T00:30:50.301Z,83.53
2022-12-15T00:33:56.691Z,83.53
2022-12-15T00:36:55.722Z,83.74
2022-12-15T00:39:50.727Z,83.76
2022-12-15T00:42:38.869Z,83.61
2022-12-15T00:45:13.872Z,83.54
2022-12-15T00:48:01.726Z,83.50
2022-12-15T00:51:01.699Z,83.72
2022-12-15T00:54:18.048Z,83.38
2022-12-15T00:57:23.698Z,82.96
2022-12-15T01:00:24.710Z,82.75
2022-12-15T01:03:30.413Z,82.72
2022-12-15T01:06:42.654Z,82.60
2022-12-15T01:09:35.493Z,82.30
2022-12-15T01:12:41.655Z,82.02
2022-12-15T01:15:34.483Z,81.93
2022-12-15T01:18:40.692Z,81.77
2022-12-15T01:21:28.734Z,81.54
2022-12-15T01:24:16.651Z,81.39
2022-12-15T01:26:57.726Z,81.06
2022-12-15T01:29:52.702Z,80.90
2022-12-15T01:32:47.709Z,80.82
2022-12-15T01:35:36.701Z,80.68
2022-12-15T01:38:18.684Z,80.72
2022-12-15T01:41:18.706Z,80.86
2022-12-15T01:44:33.688Z,80.79
2022-12-15T01:47:28.701Z,80.77
2022-12-15T01:50:27.693Z,80.67
2022-12-15T01:53:23.708Z,80.65
2022-12-15T01:56:19.691Z,80.60
2022-12-15T01:59:16.698Z,80.48
2022-12-15T02:02:11.842Z,80.47
2022-12-15T02:05:10.669Z,80.29
2022-12-15T02:08:05.695Z,80.34
2022-12-15T02:11:23.672Z,80.29
2022-12-15T02:14:25.687Z,80.22
2022-12-15T02:17:28.681Z,80.10
2022-12-15T02:20:57.688Z,80.10
2022-12-15T02:24:10.773Z,80.06
2022-12-15T02:27:32.801Z,80.10
2022-12-15T02:30:29.850Z,79.99
2022-12-15T02:33:36.731Z,80.03
2022-12-15T02:36:43.715Z,80.06
2022-12-15T02:39:18.851Z,80.16
2022-12-15T02:42:07.682Z,80.09
2022-12-15T02:44:53.694Z,80.17
2022-12-15T02:48:11.677Z,80.11
2022-12-15T02:51:06.688Z,80.21
2022-12-15T02:54:02.811Z,80.24
2022-12-15T02:56:55.668Z,80.41
2022-12-15T02:59:44.843Z,80.36
2022-12-15T03:02:35.733Z,80.63
2022-12-15T03:05:11.813Z,80.76
2022-12-15T03:08:00.678Z,80.88
2022-12-15T03:10:35.844Z,81.34
2022-12-15T03:13:23.666Z,81.66
2022-12-15T03:15:58.923Z,81.81
2022-12-15T03:18:46.677Z,82.09
2022-12-15T03:21:21.826Z,82.22
2022-12-15T03:24:16.676Z,82.29
2022-12-15T03:27:11.697Z,82.35
2022-12-15T03:30:06.693Z,82.37
2022-12-15T03:32:54.835Z,82.33
2022-12-15T03:35:42.670Z,82.35
2022-12-15T03:38:24.768Z,82.50
2022-12-15T03:41:19.655Z,82.58
2022-12-15T03:44:07.668Z,82.85
2022-12-15T03:46:42.844Z,83.08
2022-12-15T03:49:30.780Z,83.21
2022-12-15T03:52:25.679Z,83.36
2022-12-15T03:55:14.652Z,83.57
2022-12-15T03:57:49.886Z,83.60
2022-12-15T04:00:37.712Z,83.94
2022-12-15T04:03:19.711Z,83.91
2022-12-15T04:06:14.661Z,83.86
2022-12-15T04:09:09.663Z,83.68
2022-12-15T04:11:57.804Z,83.63
2022-12-15T04:14:49.650Z,83.47
2022-12-15T04:17:44.673Z,83.40
2022-12-15T04:20:32.654Z,83.00
2022-12-15T04:23:10.971Z,82.97
2022-12-15T04:26:16.643Z,82.82
2022-12-15T04:29:09.281Z,82.68
2022-12-15T04:32:23.666Z,82.67
2022-12-15T04:35:36.685Z,82.70
2022-12-15T04:38:50.889Z,82.37
2022-12-15T04:42:04.656Z,82.28
2022-12-15T04:45:20.886Z,82.15
2022-12-15T04:48:34.673Z,82.11
2022-12-15T04:51:47.674Z,82.11
2022-12-15T04:55:01.723Z,82.02
2022-12-15T04:58:15.670Z,81.86
2022-12-15T05:01:30.857Z,81.82
2022-12-15T05:04:43.684Z,81.78
2022-12-15T05:07:50.661Z,81.86
2022-12-15T05:11:03.671Z,81.68
2022-12-15T05:14:17.724Z,81.59
2022-12-15T05:17:23.684Z,81.36
2022-12-15T05:20:17.541Z,81.31
2022-12-15T05:23:24.907Z,81.21
2022-12-15T05:26:24.625Z,81.07
2022-12-15T05:29:37.682Z,80.98
2022-12-15T05:32:32.686Z,80.96
2022-12-15T05:35:27.644Z,80.96
2022-12-15T05:38:22.636Z,80.96
2022-12-15T05:41:10.647Z,80.81
2022-12-15T05:43:52.726Z,80.83
2022-12-15T05:46:47.810Z,80.73
2022-12-15T05:49:42.730Z,80.71
2022-12-15T05:52:37.629Z,80.76
2022-12-15T05:55:32.642Z,80.83
2022-12-15T05:58:27.738Z,80.91
2022-12-15T06:01:27.688Z,80.90
2022-12-15T06:04:24.697Z,80.96
2022-12-15T06:07:19.705Z,81.08
2022-12-15T06:10:14.640Z,81.00
2022-12-15T06:13:09.708Z,81.14
2022-12-15T06:16:14.721Z,81.27
2022-12-15T06:19:12.718Z,81.23
2022-12-15T06:22:07.724Z,81.27
2022-12-15T06:25:02.629Z,81.31
2022-12-15T06:28:01.730Z,81.28
2022-12-15T06:30:49.769Z,81.29
2022-12-15T06:33:37.694Z,81.30
2022-12-15T06:36:21.629Z,81.19
2022-12-15T06:39:17.629Z,81.27
2022-12-15T06:42:05.634Z,81.15
2022-12-15T06:44:47.700Z,81.20
2022-12-15T06:47:44.621Z,81.24
2022-12-15T06:50:39.649Z,81.06
2022-12-15T06:53:36.698Z,80.92
2022-12-15T06:56:43.682Z,80.89
2022-12-15T06:59:25.063Z,80.86
2022-12-15T07:02:12.878Z,80.79
2022-12-15T07:05:00.737Z,80.82
2022-12-15T07:07:42.731Z,80.73
2022-12-15T07:10:37.604Z,80.69
2022-12-15T07:13:33.196Z,80.50
2022-12-15T07:16:22.823Z,80.44
2022-12-15T07:19:04.626Z,80.07
2022-12-15T07:21:59.718Z,79.59
2022-12-15T07:24:47.655Z,79.36
2022-12-15T07:27:22.796Z,79.09
2022-12-15T07:30:10.624Z,78.55
2022-12-15T07:32:52.622Z,78.21
2022-12-15T07:35:40.613Z,77.90
2022-12-15T07:38:22.617Z,77.96
2022-12-15T07:41:19.731Z,77.66
2022-12-15T07:44:14.710Z,77.69
2022-12-15T07:47:09.611Z,77.36
2022-12-15T07:50:04.586Z,77.01
2022-12-15T07:52:59.598Z,76.45
2022-12-15T07:56:06.268Z,76.13
2022-12-15T07:58:42.242Z,76.02
2022-12-15T08:01:37.721Z,75.60
2022-12-15T08:04:32.596Z,75.27
2022-12-15T08:07:27.602Z,74.87
2022-12-15T08:10:22.599Z,74.63
2022-12-15T08:13:31.631Z,74.25
2022-12-15T08:16:33.660Z,74.25
2022-12-15T08:19:29.595Z,73.62
2022-12-15T08:22:24.579Z,72.71
2022-12-15T08:25:19.610Z,72.14
2022-12-15T08:28:07.580Z,71.62
2022-12-15T08:30:42.746Z,70.89
2022-12-15T08:33:30.934Z,70.15
2022-12-15T08:36:07.800Z,68.61
2022-12-15T08:38:56.592Z,67.19
2022-12-15T08:41:51.644Z,67.70
2022-12-15T08:44:39.682Z,67.24
2022-12-15T08:47:14.818Z,66.46
2022-12-15T08:50:02.652Z,65.89
2022-12-15T08:53:28.794Z,65.72
2022-12-15T08:56:17.611Z,65.79
2022-12-15T08:59:16.593Z,66.62
2022-12-15T09:02:12.734Z,66.23
2022-12-15T09:05:07.673Z,65.88
2022-12-15T09:08:06.594Z,65.56
2022-12-15T09:11:01.587Z,66.11
2022-12-15T09:13:50.571Z,66.39
2022-12-15T09:16:25.842Z,66.50
2022-12-15T09:19:15.747Z,66.13
2022-12-15T09:21:51.010Z,65.92
2022-12-15T09:24:41.612Z,65.93
2022-12-15T09:27:16.787Z,65.97
2022-12-15T09:30:04.594Z,66.20
2022-12-15T09:32:39.999Z,66.08
2022-12-15T09:35:27.730Z,66.13
2022-12-15T09:38:03.715Z,66.44
2022-12-15T09:40:51.570Z,66.29
2022-12-15T09:43:47.641Z,65.82
2022-12-15T09:47:23.563Z,65.60
2022-12-15T09:50:16.584Z,65.50
2022-12-15T09:53:00.725Z,65.30
2022-12-15T09:55:57.587Z,65.00
2022-12-15T09:58:51.615Z,64.91
2022-12-15T10:01:35.780Z,64.97
2022-12-15T10:04:33.608Z,65.07
2022-12-15T10:07:31.582Z,64.58
2022-12-15T10:10:06.722Z,64.94
2022-12-15T10:13:02.030Z,65.15
2022-12-15T10:16:28.820Z,64.96
2022-12-15T10:19:24.570Z,64.75
2022-12-15T10:21:59.752Z,64.56
2022-12-15T10:28:16.568Z,64.41
2022-12-15T10:31:35.571Z,63.56
2022-12-15T10:34:46.755Z,63.78
2022-12-15T10:37:43.583Z,63.98
2022-12-15T10:41:00.584Z,63.66
2022-12-15T10:43:57.671Z,63.18
2022-12-15T10:46:52.723Z,63.59
2022-12-15T10:49:34.009Z,63.74
2022-12-15T10:52:45.645Z,64.11
2022-12-15T10:55:50.005Z,64.30
2022-12-15T10:58:45.584Z,63.82
2022-12-15T11:01:47.642Z,63.69
2022-12-15T11:04:45.554Z,63.96
2022-12-15T11:07:54.653Z,63.82
2022-12-15T11:11:08.600Z,63.79
2022-12-15T11:14:24.595Z,63.18
2022-12-15T11:17:13.657Z,63.10
2022-12-15T11:20:17.574Z,62.32
2022-12-15T11:23:17.143Z,62.16
2022-12-15T11:26:12.590Z,61.90
2022-12-15T11:28:57.863Z,62.03
2022-12-15T11:31:48.846Z,61.56
2022-12-15T11:34:26.757Z,61.88
2022-12-15T11:37:36.851Z,61.80
2022-12-15T11:40:56.613Z,61.68
2022-12-15T11:44:17.550Z,61.49
2022-12-15T11:47:37.610Z,61.23
2022-12-15T11:50:46.560Z,61.30
2022-12-15T11:54:11.648Z,61.29
2022-12-15T11:57:18.544Z,61.58
2022-12-15T12:00:26.556Z,60.98
2022-12-15T12:03:33.584Z,60.94
2022-12-15T12:06:25.550Z,60.98
2022-12-15T12:09:13.552Z,60.99
2022-12-15T12:12:05.560Z,61.20
2022-12-15T12:15:09.671Z,61.54
2022-12-15T12:18:11.599Z,61.93
2022-12-15T12:21:14.585Z,62.40
2022-12-15T12:24:23.551Z,62.46
2022-12-15T12:27:31.627Z,63.00
2022-12-15T12:30:20.560Z,63.22
2022-12-15T12:33:37.545Z,63.57
2022-12-15T12:36:27.552Z,63.93
2022-12-15T12:39:33.657Z,64.17
2022-12-15T12:42:56.609Z,64.33
2022-12-15T12:46:05.561Z,64.18
2022-12-15T12:49:26.452Z,64.00
2022-12-15T12:52:32.539Z,64.13
2022-12-15T12:55:20.564Z,64.23
2022-12-15T12:57:56.303Z,64.33
2022-12-15T13:00:44.611Z,65.13
2022-12-15T13:03:40.568Z,65.58
2022-12-15T13:06:55.640Z,65.86
2022-12-15T13:09:57.610Z,66.12
2022-12-15T13:13:05.585Z,66.51
2022-12-15T13:15:54.568Z,66.65
2022-12-15T13:18:38.596Z,66.74
2022-12-15T13:21:56.987Z,66.97
2022-12-15T13:25:02.743Z,67.15
2022-12-15T13:27:57.536Z,67.70
2022-12-15T13:31:23.773Z,67.40
2022-12-15T13:34:05.587Z,67.84
2022-12-15T13:37:03.792Z,67.78
2022-12-15T13:40:08.732Z,67.92
2022-12-15T13:43:23.552Z,68.42
2022-12-15T13:46:23.724Z,68.68
2022-12-15T13:49:29.624Z,69.06
2022-12-15T13:52:20.632Z,69.01
2022-12-15T13:55:04.677Z,69.08
2022-12-15T13:58:01.529Z,69.19
2022-12-15T14:00:36.789Z,69.37
2022-12-15T14:03:32.039Z,69.57
2022-12-15T14:06:28.603Z,69.49
2022-12-15T14:09:27.673Z,69.57
2022-12-15T14:12:26.515Z,69.68
2022-12-15T14:15:24.555Z,69.68
2022-12-15T14:18:01.867Z,69.45
2022-12-15T14:20:49.530Z,70.00
2022-12-15T14:24:19.613Z,69.98
2022-12-15T14:26:59.507Z,70.24
2022-12-15T14:29:34.713Z,70.39
2022-12-15T14:32:22.509Z,70.14
2022-12-15T14:35:04.537Z,70.19
2022-12-15T14:37:59.533Z,70.37
2022-12-15T14:40:49.284Z,70.54
2022-12-15T14:43:34.138Z,70.66
2022-12-15T14:46:24.600Z,70.74
2022-12-15T14:49:16.527Z,70.94
2022-12-15T14:52:14.605Z,71.18
2022-12-15T14:55:05.653Z,71.73
2022-12-15T14:57:55.514Z,71.65
2022-12-15T15:00:37.708Z,71.48
2022-12-15T15:03:33.520Z,71.42
2022-12-15T15:06:11.658Z,71.13
2022-12-15T15:09:04.758Z,71.01
2022-12-15T15:12:01.801Z,71.38
2022-12-15T15:14:56.589Z,71.66
2022-12-15T15:17:44.525Z,71.37
2022-12-15T15:20:31.951Z,71.48
2022-12-15T15:23:22.621Z,71.44
2022-12-15T15:26:16.548Z,71.76
2022-12-15T15:29:11.522Z,71.68
2022-12-15T15:32:00.717Z,71.61
2022-12-15T15:34:43.519Z,71.80
2022-12-15T15:37:40.871Z,72.29
2022-12-15T15:40:28.557Z,72.39
2022-12-15T15:43:03.736Z,72.50
2022-12-15T15:45:52.618Z,72.17
2022-12-15T15:48:49.543Z,72.04
2022-12-15T15:51:45.521Z,72.26
2022-12-15T15:54:44.508Z,72.20
2022-12-15T15:57:33.526Z,72.56
2022-12-15T16:00:09.783Z,72.89
2022-12-15T16:02:57.824Z,72.49
2022-12-15T16:05:34.320Z,72.16
2022-12-15T16:08:38.876Z,72.10
2022-12-15T16:11:30.953Z,72.02
2022-12-15T16:14:24.666Z,71.97
2022-12-15T16:17:24.796Z,72.19
2022-12-15T16:20:24.532Z,72.30
2022-12-15T16:23:36.504Z,72.41
2022-12-15T16:26:32.721Z,72.45
2022-12-15T16:29:14.501Z,72.56
2022-12-15T16:32:09.544Z,72.89
2022-12-15T16:34:58.008Z,72.83
2022-12-15T16:37:39.585Z,72.96
2022-12-15T16:40:29.535Z,73.15
2022-12-15T16:43:06.661Z,73.21
2022-12-15T16:45:58.536Z,73.21
2022-12-15T16:48:35.195Z,73.34
2022-12-15T16:51:54.163Z,73.34
2022-12-15T16:54:36.760Z,73.25
2022-12-15T16:57:26.993Z,73.38
2022-12-15T17:00:02.123Z,73.62
2022-12-15T17:02:52.205Z,73.91
2022-12-15T17:05:28.635Z,74.05
2022-12-15T17:08:34.831Z,74.08
2022-12-15T17:11:39.933Z,74.17
2022-12-15T17:14:39.645Z,74.15
2022-12-15T17:17:28.506Z,73.86
2022-12-15T17:20:29.203Z,73.88
2022-12-15T17:23:15.517Z,74.03
2022-12-15T17:26:22.527Z,73.77
2022-12-15T17:29:20.476Z,73.80
2022-12-15T17:32:11.578Z,73.95
2022-12-15T17:34:47.539Z,73.91
2022-12-15T17:37:36.688Z,73.82
2022-12-15T17:40:26.779Z,73.96
2022-12-15T17:43:23.598Z,73.69
2022-12-15T17:46:05.714Z,73.82
2022-12-15T17:49:00.493Z,73.73
2022-12-15T17:51:58.499Z,73.76
2022-12-15T17:54:53.492Z,73.66
2022-12-15T17:57:41.614Z,73.80
2022-12-15T18:00:49.037Z,73.86
2022-12-15T18:03:46.775Z,73.85
2022-12-15T18:06:42.817Z,73.80
2022-12-15T18:09:37.479Z,73.86
2022-12-15T18:12:31.820Z,73.85
2022-12-15T18:15:14.789Z,74.01
2022-12-15T18:18:08.064Z,74.15
2022-12-15T18:20:50.504Z,74.09
2022-12-15T18:23:42.889Z,74.18
2022-12-15T18:26:39.664Z,74.11
2022-12-15T18:29:42.704Z,74.25
2022-12-15T18:32:33.520Z,74.19
2022-12-15T18:35:49.536Z,74.26
2022-12-15T18:38:45.467Z,74.23
2022-12-15T18:41:43.329Z,74.30
2022-12-15T18:44:42.824Z,74.32
2022-12-15T18:47:42.570Z,74.33
2022-12-15T18:50:38.492Z,74.35
2022-12-15T18:53:49.455Z,74.40
2022-12-15T18:56:44.497Z,74.39
2022-12-15T18:59:39.467Z,74.28
2022-12-15T19:02:34.671Z,74.35
2022-12-15T19:05:35.559Z,74.27
2022-12-15T19:08:38.549Z,74.21
2022-12-15T19:11:39.482Z,74.08
2022-12-15T19:14:45.464Z,74.04
2022-12-15T19:17:53.477Z,74.03
2022-12-15T19:21:07.798Z,73.99
2022-12-15T19:23:57.485Z,73.83
2022-12-15T19:26:32.646Z,73.75
2022-12-15T19:29:28.484Z,73.51
2022-12-15T19:32:23.989Z,73.47
2022-12-15T19:35:11.477Z,73.55
2022-12-15T19:37:49.949Z,73.71
2022-12-15T19:40:40.477Z,73.68
2022-12-15T19:43:18.085Z,73.62
2022-12-15T19:46:06.551Z,73.38
2022-12-15T19:48:43.667Z,73.51
2022-12-15T19:51:35.538Z,73.61
2022-12-15T19:54:19.604Z,73.55
2022-12-15T19:57:14.584Z,73.63
2022-12-15T20:00:02.681Z,73.78
2022-12-15T20:02:38.761Z,73.84
2022-12-15T20:05:27.730Z,73.96
2022-12-15T20:08:32.822Z,73.68
2022-12-15T20:11:27.491Z,73.69
2022-12-15T20:14:10.087Z,73.73
2022-12-15T20:16:59.715Z,73.87
2022-12-15T20:19:42.539Z,74.04
2022-12-15T20:22:38.186Z,73.93
2022-12-15T20:25:39.035Z,73.90
2022-12-15T20:28:37.452Z,73.88
2022-12-15T20:31:35.461Z,73.97
2022-12-15T20:34:24.446Z,74.18
2022-12-15T20:37:00.089Z,73.91
2022-12-15T20:39:52.559Z,73.94
2022-12-15T20:42:37.649Z,74.10
2022-12-15T20:45:34.569Z,73.91
2022-12-15T20:48:31.617Z,73.83
2022-12-15T20:51:27.786Z,73.65
2022-12-15T20:54:16.481Z,73.83
2022-12-15T20:57:11.429Z,73.85
2022-12-15T21:00:08.457Z,73.96
2022-12-15T21:03:04.584Z,74.20
2022-12-15T21:05:53.701Z,74.27
2022-12-15T21:08:45.112Z,74.50
2022-12-15T21:11:45.465Z,74.39
2022-12-15T21:14:37.575Z,74.47
2022-12-15T21:17:19.434Z,74.76
2022-12-15T21:20:14.477Z,75.03
2022-12-15T21:23:09.484Z,75.36
2022-12-15T21:26:05.440Z,75.47
2022-12-15T21:29:04.435Z,75.48
2022-12-15T21:31:52.455Z,75.63
2022-12-15T21:34:27.703Z,75.61
2022-12-15T21:37:29.448Z,75.81
2022-12-15T21:40:30.435Z,75.89
2022-12-15T21:43:25.464Z,75.88
2022-12-15T21:46:55.480Z,75.90
2022-12-15T21:49:37.619Z,76.01
2022-12-15T21:52:33.547Z,75.97
2022-12-15T21:55:38.013Z,76.20
2022-12-15T21:58:34.825Z,76.28
2022-12-15T22:01:30.435Z,76.52
2022-12-15T22:04:08.571Z,76.56
2022-12-15T22:06:56.463Z,76.54
2022-12-15T22:09:31.550Z,76.58
2022-12-15T22:12:28.532Z,76.58
2022-12-15T22:15:31.431Z,76.53
2022-12-15T22:18:29.796Z,76.57
2022-12-15T22:21:24.458Z,76.70
2022-12-15T22:24:12.428Z,76.96
2022-12-15T22:26:47.770Z,77.15
2022-12-15T22:29:46.429Z,77.14
2022-12-15T22:32:28.025Z,77.22
2022-12-15T22:35:18.055Z,77.35
2022-12-15T22:38:06.440Z,77.54
2022-12-15T22:41:03.420Z,77.62
2022-12-15T22:43:58.419Z,77.70
2022-12-15T22:46:54.625Z,77.67
2022-12-15T22:49:53.256Z,77.87
2022-12-15T22:52:52.565Z,77.76
2022-12-15T22:55:55.334Z,77.88
2022-12-15T22:58:50.387Z,78.04
2022-12-15T23:01:27.628Z,78.14
2022-12-15T23:04:15.421Z,78.05
2022-12-15T23:06:50.627Z,78.18
2022-12-15T23:09:39.417Z,78.21
2022-12-15T23:12:34.430Z,78.39
2022-12-15T23:15:47.490Z,78.32
2022-12-15T23:18:42.412Z,78.39
2022-12-15T23:21:37.406Z,78.40
2022-12-15T23:24:32.399Z,78.50
2022-12-15T23:27:20.400Z,78.71
2022-12-15T23:30:15.612Z,78.89
2022-12-15T23:33:10.395Z,79.11
2022-12-15T23:36:02.482Z,79.11
2022-12-15T23:38:44.397Z,79.22
2022-12-15T23:41:40.424Z,79.49
2022-12-15T23:44:30.820Z,79.51
2022-12-15T23:47:05.613Z,79.38
2022-12-15T23:49:53.408Z,79.39
2022-12-15T23:52:51.748Z,79.39
2022-12-15T23:55:49.399Z,79.43
2022-12-15T23:58:46.391Z,79.44
